マドリード/バラハス の空港の天気 - METARとTAF

マドリード・バラハス国際空港 ( LEMD / MAD ) - スペイン マドリード
飛行場実況気象(Metar)
観測時間08/05 09:30 CEST (08/05 07:30 UTC)
風向・風速北 2m/s
視程10km以上
天気現象
なし
気温23℃
湿度38%
気圧1016hPa
METARLEMD 050730Z 35004KT 310V020 CAVOK 23/08 Q1016 NOSIG
過去の天気等 Google飛行場航空写真 Wunderground天気予報

過去48時間のMETAR

飛行場予報(TAF)
発表時間: 8/05 07:00 CEST (8/05 05:00 UTC)
予報対象時間: 5日8時 CEST ~ 6日14時 CEST
風向・風速不定 3m/s
視程10km以上
なし
5日8時 CEST ~ 5日11時 CEST に 確率 40% で一時的に
風向・風速北北東 5m/s
5日13時 CEST ~ 5日22時 CEST に 確率 30% で一時的に
風向・風速南西 5m/s
6日1時 CEST ~ 6日11時 CEST に 確率 40% で一時的に
風向・風速北東 5m/s
TAF LEMD 050500Z 0506/0612 VRB05KT CAVOK TX37/0516Z TN18/0506Z
PROB40 TEMPO 0506/0509 03010KT
PROB30 TEMPO 0511/0520 22010KT
PROB40 TEMPO 0523/0609 04010KT